createdAt,value
2023-03-14T00:03:18.770Z,11.50
2023-03-14T00:07:37.952Z,11.50
2023-03-14T00:11:49.312Z,11.50
2023-03-14T00:15:52.380Z,11.40
2023-03-14T00:20:12.472Z,11.50
2023-03-14T00:24:16.483Z,11.50
2023-03-14T00:28:23.647Z,11.60
2023-03-14T00:32:31.511Z,11.60
2023-03-14T00:36:43.486Z,11.60
2023-03-14T00:40:52.486Z,11.50
2023-03-14T00:44:58.084Z,11.50
2023-03-14T00:49:03.590Z,11.40
2023-03-14T00:53:08.334Z,11.40
2023-03-14T00:57:14.966Z,11.30
2023-03-14T01:01:20.482Z,11.30
2023-03-14T01:05:24.326Z,11.30
2023-03-14T01:09:29.704Z,11.30
2023-03-14T01:13:32.432Z,11.30
2023-03-14T01:17:38.827Z,11.40
2023-03-14T01:21:41.598Z,11.40
2023-03-14T01:25:49.234Z,11.50
2023-03-14T01:29:53.208Z,11.40
2023-03-14T01:33:57.490Z,11.40
2023-03-14T01:38:00.808Z,11.40
2023-03-14T01:42:04.364Z,11.30
2023-03-14T01:46:24.323Z,11.40
2023-03-14T01:50:30.474Z,11.40
2023-03-14T01:54:36.876Z,11.50
2023-03-14T01:58:42.800Z,11.50
2023-03-14T02:02:47.534Z,11.40
2023-03-14T02:07:00.445Z,11.50
2023-03-14T02:11:09.304Z,11.50
2023-03-14T02:15:28.166Z,11.50
2023-03-14T02:19:51.602Z,11.50
2023-03-14T02:24:19.442Z,11.50
2023-03-14T02:28:30.178Z,11.50
2023-03-14T02:32:39.364Z,11.50
2023-03-14T02:36:42.767Z,11.50
2023-03-14T02:40:46.568Z,11.50
2023-03-14T02:44:54.476Z,11.50
2023-03-14T02:49:01.565Z,11.50
2023-03-14T02:53:04.723Z,11.50
2023-03-14T02:57:07.775Z,11.40
2023-03-14T03:01:12.822Z,11.10
2023-03-14T03:05:15.748Z,10.50
2023-03-14T03:09:18.484Z,10.00
2023-03-14T03:13:21.500Z,9.60
2023-03-14T03:17:30.154Z,9.30
2023-03-14T03:21:32.875Z,9.10
2023-03-14T03:25:36.044Z,9.00
2023-03-14T03:29:40.499Z,9.00
2023-03-14T03:33:45.415Z,9.00
2023-03-14T03:37:48.537Z,9.00
2023-03-14T03:41:51.966Z,9.00
2023-03-14T03:45:55.874Z,9.00
2023-03-14T03:50:01.630Z,8.90
2023-03-14T03:54:04.688Z,8.90
2023-03-14T03:58:10.064Z,8.90
2023-03-14T04:02:12.965Z,8.90
2023-03-14T04:06:17.393Z,8.90
2023-03-14T04:10:22.888Z,8.80
2023-03-14T04:14:42.972Z,8.90
2023-03-14T04:18:50.988Z,8.90
2023-03-14T04:22:58.925Z,8.90
2023-03-14T04:27:03.299Z,9.00
2023-03-14T04:31:11.158Z,9.00
2023-03-14T04:35:14.384Z,9.00
2023-03-14T04:39:18.692Z,9.00
2023-03-14T04:43:29.761Z,9.00
2023-03-14T04:47:41.150Z,9.00
2023-03-14T04:51:46.998Z,8.90
2023-03-14T04:55:51.857Z,8.80
2023-03-14T04:59:55.083Z,8.80
2023-03-14T05:04:16.661Z,8.80
2023-03-14T05:08:43.911Z,8.80
2023-03-14T05:13:06.604Z,8.80
2023-03-14T05:17:24.629Z,8.80
2023-03-14T05:21:53.525Z,8.80
2023-03-14T05:26:08.850Z,8.90
2023-03-14T05:30:31.845Z,9.00
2023-03-14T05:35:01.443Z,8.90
2023-03-14T05:39:27.418Z,8.90
2023-03-14T05:43:40.253Z,8.90
2023-03-14T05:48:09.898Z,8.90
2023-03-14T05:52:26.386Z,9.00
2023-03-14T05:56:38.390Z,9.00
2023-03-14T06:00:51.940Z,9.10
2023-03-14T06:05:10.817Z,9.00
2023-03-14T06:09:13.903Z,9.00
2023-03-14T06:13:20.931Z,9.10
2023-03-14T06:17:31.127Z,9.00
2023-03-14T06:21:43.519Z,9.00
2023-03-14T06:25:46.482Z,9.00
2023-03-14T06:29:52.219Z,9.00
2023-03-14T06:33:55.470Z,9.10
2023-03-14T06:38:02.209Z,9.10
2023-03-14T06:42:05.269Z,9.20
2023-03-14T06:46:09.023Z,9.30
2023-03-14T06:50:14.396Z,9.30
2023-03-14T06:54:19.810Z,9.50
2023-03-14T06:58:24.683Z,9.50
2023-03-14T07:02:41.851Z,9.50
2023-03-14T07:06:54.423Z,9.60
2023-03-14T07:10:59.666Z,9.70
2023-03-14T07:15:17.572Z,9.70
2023-03-14T07:19:22.392Z,9.70
2023-03-14T07:23:25.289Z,9.80
2023-03-14T07:27:31.450Z,9.90
2023-03-14T07:31:34.414Z,10.00
2023-03-14T07:35:39.571Z,10.00
2023-03-14T07:39:42.828Z,10.00
2023-03-14T07:43:54.052Z,10.10
2023-03-14T07:47:58.659Z,10.10
2023-03-14T07:52:01.512Z,10.20
2023-03-14T07:56:04.412Z,10.20
2023-03-14T08:00:10.894Z,10.30
2023-03-14T08:04:16.352Z,10.30
2023-03-14T08:08:19.792Z,10.40
2023-03-14T08:12:22.527Z,10.40
2023-03-14T08:16:26.787Z,10.40
2023-03-14T08:20:31.570Z,10.40
2023-03-14T08:24:34.472Z,10.40
2023-03-14T08:28:37.256Z,10.40
2023-03-14T08:32:41.594Z,10.50
2023-03-14T08:36:44.654Z,10.70
2023-03-14T08:40:47.399Z,10.80
2023-03-14T08:44:50.211Z,10.80
2023-03-14T08:48:54.341Z,10.90
2023-03-14T08:52:59.167Z,10.90
2023-03-14T08:57:02.104Z,10.90
2023-03-14T09:01:04.958Z,11.00
2023-03-14T09:05:11.056Z,11.00
2023-03-14T09:09:14.443Z,11.10
2023-03-14T09:13:17.214Z,11.20
2023-03-14T09:17:20.003Z,11.30
2023-03-14T09:21:24.108Z,11.30
2023-03-14T09:25:26.871Z,11.30
2023-03-14T09:29:29.742Z,11.30
2023-03-14T09:33:32.460Z,11.40
2023-03-14T09:37:36.544Z,11.50
2023-03-14T09:41:42.433Z,11.50
2023-03-14T09:45:47.916Z,11.50
2023-03-14T09:49:50.739Z,11.60
2023-03-14T09:53:54.804Z,11.70
2023-03-14T09:58:01.008Z,11.80
2023-03-14T10:02:13.407Z,11.80
2023-03-14T10:06:17.061Z,11.90
2023-03-14T10:10:23.068Z,11.90
2023-03-14T10:14:34.381Z,12.00
2023-03-14T10:18:37.168Z,12.00
2023-03-14T10:22:40.291Z,11.90
2023-03-14T10:26:44.830Z,11.70
2023-03-14T10:30:48.085Z,11.50
2023-03-14T10:35:19.322Z,11.40
2023-03-14T10:39:29.612Z,11.30
2023-03-14T10:43:37.092Z,11.30
2023-03-14T10:47:51.219Z,11.20
2023-03-14T10:51:54.089Z,11.10
2023-03-14T10:55:58.875Z,10.90
2023-03-14T11:00:09.046Z,10.80
2023-03-14T11:04:27.487Z,10.70
2023-03-14T11:08:38.068Z,10.40
2023-03-14T11:12:52.081Z,9.90
2023-03-14T11:17:02.944Z,9.70
2023-03-14T11:21:13.779Z,9.50
2023-03-14T11:25:23.945Z,9.20
2023-03-14T11:29:33.503Z,8.80
2023-03-14T11:33:41.168Z,8.80
2023-03-14T11:37:49.303Z,8.70
2023-03-14T11:41:54.486Z,8.60
2023-03-14T11:46:03.324Z,8.50
2023-03-14T11:50:15.956Z,8.50
2023-03-14T11:54:24.404Z,8.30
2023-03-14T11:58:29.664Z,8.10
2023-03-14T12:02:42.292Z,7.90
2023-03-14T12:06:50.168Z,7.70
2023-03-14T12:10:55.457Z,7.60
2023-03-14T12:15:01.282Z,7.50
2023-03-14T12:19:30.255Z,7.20
2023-03-14T12:23:43.029Z,6.60
2023-03-14T12:27:49.714Z,6.20
2023-03-14T12:32:10.400Z,6.10
2023-03-14T12:36:54.226Z,5.90
2023-03-14T12:41:03.958Z,5.80
2023-03-14T12:45:22.936Z,5.70
2023-03-14T12:49:31.983Z,5.70
2023-03-14T12:53:57.696Z,5.60
2023-03-14T12:58:08.104Z,5.70
2023-03-14T13:02:25.792Z,5.60
2023-03-14T13:06:54.777Z,5.70
2023-03-14T13:10:58.621Z,5.90
2023-03-14T13:15:03.760Z,6.00
2023-03-14T13:19:17.710Z,6.10
2023-03-14T13:23:26.819Z,6.20
2023-03-14T13:27:33.905Z,6.30
2023-03-14T13:31:38.076Z,6.40
2023-03-14T13:35:43.981Z,6.40
2023-03-14T13:39:51.701Z,6.40
2023-03-14T13:44:04.230Z,6.40
2023-03-14T13:48:11.796Z,6.50
2023-03-14T13:52:31.569Z,6.40
2023-03-14T13:56:35.225Z,6.50
2023-03-14T14:00:38.116Z,6.40
2023-03-14T14:04:42.576Z,6.30
2023-03-14T14:08:45.776Z,6.00
2023-03-14T14:12:52.435Z,5.70
2023-03-14T14:16:56.079Z,5.60
2023-03-14T14:21:00.495Z,5.60
2023-03-14T14:25:03.636Z,5.70
2023-03-14T14:29:07.819Z,5.80
2023-03-14T14:33:28.358Z,5.90
2023-03-14T14:37:34.252Z,5.90
2023-03-14T14:41:41.616Z,5.90
2023-03-14T14:45:45.141Z,6.00
2023-03-14T14:49:50.164Z,6.10
2023-03-14T14:54:06.151Z,6.20
2023-03-14T14:58:22.845Z,6.20
2023-03-14T15:02:37.365Z,6.30
2023-03-14T15:06:40.242Z,6.30
2023-03-14T15:10:44.688Z,6.40
2023-03-14T15:14:47.510Z,6.50
2023-03-14T15:18:55.093Z,6.50
2023-03-14T15:22:57.793Z,6.40
2023-03-14T15:27:02.765Z,6.30
2023-03-14T15:31:05.964Z,6.20
2023-03-14T15:35:09.504Z,6.10
2023-03-14T15:39:12.907Z,6.10
2023-03-14T15:43:17.339Z,6.10
2023-03-14T15:47:20.203Z,6.10
2023-03-14T15:51:23.101Z,6.10
2023-03-14T15:55:25.870Z,6.10
2023-03-14T15:59:30.847Z,6.10
2023-03-14T16:03:33.716Z,6.10
2023-03-14T16:07:36.458Z,6.10
2023-03-14T16:11:39.489Z,6.10
2023-03-14T16:15:44.227Z,6.00
2023-03-14T16:19:47.761Z,6.00
2023-03-14T16:23:50.870Z,6.00
2023-03-14T16:28:09.999Z,5.90
2023-03-14T16:32:15.232Z,5.80
2023-03-14T16:36:20.312Z,5.70
2023-03-14T16:40:23.172Z,5.60
2023-03-14T16:44:26.514Z,5.60
2023-03-14T16:48:31.020Z,5.60
2023-03-14T16:52:33.848Z,5.60
2023-03-14T16:56:36.860Z,5.60
2023-03-14T17:00:39.775Z,5.60
2023-03-14T17:04:43.839Z,5.70
2023-03-14T17:08:46.907Z,5.60
2023-03-14T17:12:49.736Z,5.60
2023-03-14T17:16:52.508Z,5.50
2023-03-14T17:20:57.779Z,5.40
2023-03-14T17:25:01.386Z,5.40
2023-03-14T17:29:04.305Z,5.40
2023-03-14T17:33:07.131Z,5.40
2023-03-14T17:37:14.886Z,5.40
2023-03-14T17:41:17.849Z,5.40
2023-03-14T17:45:22.290Z,5.30
2023-03-14T17:49:25.814Z,5.30
2023-03-14T17:53:30.465Z,5.30
2023-03-14T17:57:37.338Z,5.30
2023-03-14T18:01:41.836Z,5.20
2023-03-14T18:05:45.324Z,5.20
2023-03-14T18:09:51.448Z,5.20
2023-03-14T18:13:58.224Z,5.10
2023-03-14T18:18:03.394Z,5.10
2023-03-14T18:22:09.976Z,5.10
2023-03-14T18:26:44.164Z,5.10
2023-03-14T18:31:25.981Z,5.10
2023-03-14T18:35:33.987Z,5.00
2023-03-14T18:39:41.723Z,4.90
2023-03-14T18:43:49.558Z,4.90
2023-03-14T18:47:52.360Z,4.80
2023-03-14T18:51:55.242Z,4.70
2023-03-14T18:55:58.102Z,4.60
2023-03-14T19:00:02.533Z,4.50
2023-03-14T19:04:09.368Z,4.40
2023-03-14T19:08:15.155Z,4.30
2023-03-14T19:12:19.402Z,4.20
2023-03-14T19:16:24.480Z,4.20
2023-03-14T19:20:27.566Z,4.10
2023-03-14T19:24:30.569Z,4.00
2023-03-14T19:28:34.179Z,4.00
2023-03-14T19:32:38.374Z,4.00
2023-03-14T19:36:41.270Z,3.90
2023-03-14T19:40:46.085Z,3.80
2023-03-14T19:44:48.837Z,3.80
2023-03-14T19:48:55.032Z,3.90
2023-03-14T19:52:59.167Z,3.90
2023-03-14T19:57:04.151Z,3.90
2023-03-14T20:01:08.325Z,3.90
2023-03-14T20:05:13.541Z,3.90
2023-03-14T20:09:17.609Z,3.90
2023-03-14T20:13:22.595Z,3.90
2023-03-14T20:17:38.420Z,3.90
2023-03-14T20:21:43.246Z,3.90
2023-03-14T20:25:55.908Z,3.80
2023-03-14T20:29:59.267Z,3.80
2023-03-14T20:34:05.844Z,3.80
2023-03-14T20:38:11.049Z,3.80
2023-03-14T20:42:14.588Z,3.80
2023-03-14T20:46:17.916Z,3.70
2023-03-14T20:50:27.703Z,3.70
2023-03-14T20:54:33.055Z,3.70
2023-03-14T20:58:35.893Z,3.70
2023-03-14T21:02:38.663Z,3.60
2023-03-14T21:06:42.262Z,3.70
2023-03-14T21:10:47.599Z,3.70
2023-03-14T21:14:50.469Z,3.60
2023-03-14T21:18:53.499Z,3.60
2023-03-14T21:22:58.403Z,3.60
2023-03-14T21:27:02.764Z,3.60
2023-03-14T21:31:09.515Z,3.50
2023-03-14T21:35:12.669Z,3.50
2023-03-14T21:39:15.575Z,3.50
2023-03-14T21:43:19.806Z,3.50
2023-03-14T21:47:23.445Z,3.40
2023-03-14T21:51:31.179Z,3.40
2023-03-14T21:55:33.972Z,3.40
2023-03-14T21:59:39.116Z,3.40
2023-03-14T22:03:41.860Z,3.40
2023-03-14T22:07:45.281Z,3.40
2023-03-14T22:11:49.631Z,3.30
2023-03-14T22:15:53.902Z,3.30
2023-03-14T22:19:56.829Z,3.30
2023-03-14T22:24:01.702Z,3.20
2023-03-14T22:28:10.064Z,3.10
2023-03-14T22:32:16.746Z,3.10
2023-03-14T22:36:19.649Z,3.00
2023-03-14T22:40:22.455Z,3.00
2023-03-14T22:44:26.515Z,2.90
2023-03-14T22:48:31.093Z,2.80
2023-03-14T22:52:34.143Z,2.70
2023-03-14T22:56:37.998Z,2.70
2023-03-14T23:00:41.227Z,2.60
2023-03-14T23:04:45.295Z,2.60
2023-03-14T23:08:48.715Z,2.60
2023-03-14T23:12:57.449Z,2.50
2023-03-14T23:17:05.440Z,2.50
2023-03-14T23:21:12.496Z,2.50
2023-03-14T23:25:15.428Z,2.40
2023-03-14T23:29:18.298Z,2.40
2023-03-14T23:33:21.208Z,2.30
2023-03-14T23:37:25.849Z,2.30
2023-03-14T23:41:28.596Z,2.30
2023-03-14T23:45:31.425Z,2.20
2023-03-14T23:49:34.318Z,2.20
2023-03-14T23:53:38.412Z,2.20
2023-03-14T23:57:41.115Z,2.20
